Airport View

Enter AWOS ICAO identifier for current METAR.

ex. KFNL

KRQO 221750Z AUTO 02017G23KT 7SM HZ BKN035 28/18 A3017 RMK AO2 T02820182 10290 20221

22 Jul 2019 18:28

Frequency: 118.475

Phone: 405-262-0087

Other Area AWOS: KRCE - KHSD - KPWA - KOKC

TAF KOKC 221720Z 2218/2318 03016G24KT P6SM BKN028 FM222000 04016G23KT P6SM SKC FM230300 02009KT P6SM SCT250